Huvudsida
METAR-TAF:

METAR-TAF

Flygplatser :

Pecs - Pogany Airport

Pécs, Ungern

latitud: 46-06N, longitud: 018-14E, höjd: 201 m

Aktuellt väderrapport

Denna rapport gjordes för 51 minuter sedan, klockan 12:15 UTC
Vind 3 kt från syd
Temperatur 3°C
Fuktighet 100%
Tryck 1017 hPa
Sikt: 0200 m
Mulet på en höjd av 500 ft
dimma

METAR: LHPP 081215Z 18003KT 0200 FG OVC005 03/03 Q1017

Tid: 14:06 (13:06 UTC)

Väderprognos

Denna rapport gjordes för 1 timme och 51 minuter sedan, klockan 11:15 UTC
Prognos gäller från 08 kl. 12 UTC till 08 kl. 21 UTC
Vind 3 kt varierande vindriktning
Sikt: 0200 m
Mulet på en höjd av 200 ft
underkyld dimma
Sannolikhet 30%
från 08 kl. 12 UTC till 08 kl. 17 UTC
Sikt: 1200 m
Brutna moln på en höjd av 500 ft
dimbankar, fuktdis

TAF: LHPP 081115Z 0812/0821 VRB03KT 0200 FZFG OVC002 PROB30 0812/0817 1200 BCFG BR BKN005

Aktuella väderrapporter och prognoser från 4000 flygplatser (METAR- och TAF-rapporter).

De tillgängliga stationerna syns som gula och röda prickar på kartan.

För musen över prickarna för att se namnen på stationerna.

Klicka sedan för att få väderrapporter och prognoser.

För att ändra kartan: Klicka på de gröna knapparna med ett svart kors på för att zooma in; den gröna knappen med ett streck på för att zooma ut; eller på de gröna pilarna för angränsande kartor.


METAR-TAF: